createdAt,value
2018-04-15T00:00:30.492Z,1034.13
2018-04-15T00:01:30.483Z,1034.13
2018-04-15T00:02:30.476Z,1034.12
2018-04-15T00:03:30.473Z,1034.13
2018-04-15T00:04:30.459Z,1034.16
2018-04-15T00:05:30.455Z,1034.13
2018-04-15T00:06:30.450Z,1034.14
2018-04-15T00:07:30.442Z,1034.11
2018-04-15T00:08:30.427Z,1034.11
2018-04-15T00:09:30.422Z,1034.1
2018-04-15T00:10:30.411Z,1034.09
2018-04-15T00:11:30.415Z,1034.08
2018-04-15T00:12:30.395Z,1034.1
2018-04-15T00:13:30.388Z,1034.15
2018-04-15T00:14:30.379Z,1034.08
2018-04-15T00:15:30.371Z,1034.1
2018-04-15T00:16:30.361Z,1034.1
2018-04-15T00:17:30.354Z,1034.09
2018-04-15T00:18:30.346Z,1034.08
2018-04-15T00:19:30.338Z,1034.06
2018-04-15T00:20:30.329Z,1034.04
2018-04-15T00:21:30.321Z,1034.04
2018-04-15T00:22:30.325Z,1034.05
2018-04-15T00:23:30.305Z,1034.07
2018-04-15T00:24:30.297Z,1034.08
2018-04-15T00:25:30.289Z,1034.03
2018-04-15T00:26:30.282Z,1034.06
2018-04-15T00:27:30.273Z,1034.06
2018-04-15T00:28:30.265Z,1034.02
2018-04-15T00:29:30.258Z,1034.05
2018-04-15T00:30:30.249Z,1034.01
2018-04-15T00:31:30.242Z,1034.03
2018-04-15T00:32:30.236Z,1034.06
2018-04-15T00:33:30.229Z,1034.05
2018-04-15T00:34:30.215Z,1034.06
2018-04-15T00:35:30.211Z,1034.06
2018-04-15T00:36:30.199Z,1034.06
2018-04-15T00:37:30.192Z,1034.06
2018-04-15T00:38:30.185Z,1034.06
2018-04-15T00:39:30.174Z,1034.02
2018-04-15T00:40:30.174Z,1034.03
2018-04-15T00:41:30.158Z,1033.98
2018-04-15T00:42:30.149Z,1033.96
2018-04-15T00:43:30.140Z,1033.98
2018-04-15T00:44:30.131Z,1033.95
2018-04-15T00:45:30.129Z,1033.96
2018-04-15T00:46:30.117Z,1033.95
2018-04-15T00:47:30.106Z,1033.96
2018-04-15T00:48:30.123Z,1033.92
2018-04-15T00:49:30.089Z,1033.92
2018-04-15T00:50:30.081Z,1033.9
2018-04-15T00:51:30.073Z,1033.86
2018-04-15T00:52:30.065Z,1033.9
2018-04-15T00:53:30.056Z,1033.91
2018-04-15T00:54:30.052Z,1033.9
2018-04-15T00:55:30.088Z,1033.93
2018-04-15T00:56:30.049Z,1033.89
2018-04-15T00:57:30.023Z,1033.9
2018-04-15T00:58:30.016Z,1033.89
2018-04-15T00:59:30.007Z,1033.9
2018-04-15T01:00:29.998Z,1033.88
2018-04-15T01:01:29.998Z,1033.87
2018-04-15T01:02:29.983Z,1033.83
2018-04-15T01:03:29.973Z,1033.85
2018-04-15T01:04:29.965Z,1033.81
2018-04-15T01:05:29.957Z,1033.84
2018-04-15T01:06:29.948Z,1033.83
2018-04-15T01:07:29.939Z,1033.8
2018-04-15T01:08:29.931Z,1033.81
2018-04-15T01:09:29.923Z,1033.8
2018-04-15T01:10:29.915Z,1033.8
2018-04-15T01:11:29.905Z,1033.77
2018-04-15T01:12:29.898Z,1033.81
2018-04-15T01:13:29.889Z,1033.79
2018-04-15T01:14:29.880Z,1033.82
2018-04-15T01:15:29.878Z,1033.79
2018-04-15T01:16:29.864Z,1033.82
2018-04-15T01:17:29.859Z,1033.79
2018-04-15T01:18:29.848Z,1033.81
2018-04-15T01:19:29.838Z,1033.78
2018-04-15T01:20:29.829Z,1033.8
2018-04-15T01:21:29.821Z,1033.8
2018-04-15T01:22:29.814Z,1033.8
2018-04-15T01:23:29.803Z,1033.8
2018-04-15T01:24:29.797Z,1033.81
2018-04-15T01:25:29.785Z,1033.81
2018-04-15T01:26:29.777Z,1033.78
2018-04-15T01:27:29.768Z,1033.77
2018-04-15T01:28:29.760Z,1033.76
2018-04-15T01:29:29.752Z,1033.74
2018-04-15T01:30:29.742Z,1033.74
2018-04-15T01:31:29.735Z,1033.73
2018-04-15T01:32:29.730Z,1033.71
2018-04-15T01:33:29.717Z,1033.68
2018-04-15T01:34:29.709Z,1033.7
2018-04-15T01:35:29.701Z,1033.66
2018-04-15T01:36:29.691Z,1033.64
2018-04-15T01:37:29.683Z,1033.61
2018-04-15T01:38:29.674Z,1033.65
2018-04-15T01:39:29.666Z,1033.6
2018-04-15T01:40:29.656Z,1033.62
2018-04-15T01:41:29.649Z,1033.66
2018-04-15T01:42:29.671Z,1033.62
2018-04-15T01:43:29.640Z,1033.64
2018-04-15T01:44:29.625Z,1033.61
2018-04-15T01:45:29.613Z,1033.62
2018-04-15T01:46:29.606Z,1033.59
2018-04-15T01:47:29.607Z,1033.55
2018-04-15T01:48:29.595Z,1033.58
2018-04-15T01:49:29.578Z,1033.57
2018-04-15T01:50:29.570Z,1033.52
2018-04-15T01:51:29.565Z,1033.56
2018-04-15T01:52:29.553Z,1033.53
2018-04-15T01:53:29.544Z,1033.52
2018-04-15T01:54:29.537Z,1033.57
2018-04-15T01:55:29.532Z,1033.54
2018-04-15T01:56:29.518Z,1033.5
2018-04-15T01:57:29.511Z,1033.49
2018-04-15T01:58:29.504Z,1033.38
2018-04-15T01:59:29.502Z,1033.41
2018-04-15T02:00:29.484Z,1033.42
2018-04-15T02:01:29.477Z,1033.37
2018-04-15T02:02:29.467Z,1033.37
2018-04-15T02:03:29.459Z,1033.36
2018-04-15T02:04:29.450Z,1033.37
2018-04-15T02:05:29.441Z,1033.31
2018-04-15T02:06:29.433Z,1033.33
2018-04-15T02:07:29.426Z,1033.32
2018-04-15T02:08:29.417Z,1033.28
2018-04-15T02:09:29.408Z,1033.29
2018-04-15T02:10:29.405Z,1033.26
2018-04-15T02:11:29.394Z,1033.23
2018-04-15T02:12:29.383Z,1033.19
2018-04-15T02:13:29.375Z,1033.19
2018-04-15T02:14:29.366Z,1033.22
2018-04-15T02:15:29.358Z,1033.24
2018-04-15T02:16:29.398Z,1033.21
2018-04-15T02:17:29.341Z,1033.15
2018-04-15T02:18:29.337Z,1033.2
2018-04-15T02:19:29.325Z,1033.22
2018-04-15T02:20:29.316Z,1033.22
2018-04-15T02:21:29.308Z,1033.25
2018-04-15T02:22:29.299Z,1033.26
2018-04-15T02:23:29.291Z,1033.25
2018-04-15T02:24:29.284Z,1033.24
2018-04-15T02:25:29.275Z,1033.25
2018-04-15T02:26:29.266Z,1033.21
2018-04-15T02:27:29.259Z,1033.21
2018-04-15T02:28:29.250Z,1033.17
2018-04-15T02:29:29.242Z,1033.17
2018-04-15T02:30:29.235Z,1033.14
2018-04-15T02:31:29.225Z,1033.09
2018-04-15T02:32:29.217Z,1033.06
2018-04-15T02:33:29.208Z,1033.09
2018-04-15T02:34:29.203Z,1033.06
2018-04-15T02:35:29.191Z,1033.09
2018-04-15T02:36:29.184Z,1033.09
2018-04-15T02:37:29.174Z,1033.11
2018-04-15T02:38:29.167Z,1033.09
2018-04-15T02:39:29.158Z,1033.04
2018-04-15T02:40:29.150Z,1033.01
2018-04-15T02:41:29.145Z,1033.01
2018-04-15T02:42:29.133Z,1032.96
2018-04-15T02:43:29.124Z,1032.91
2018-04-15T02:44:29.117Z,1032.93
2018-04-15T02:45:29.108Z,1032.94
2018-04-15T02:46:29.100Z,1032.92
2018-04-15T02:47:29.092Z,1032.91
2018-04-15T02:48:29.083Z,1032.9
2018-04-15T02:49:29.133Z,1032.86
2018-04-15T02:50:29.068Z,1032.85
2018-04-15T02:51:29.059Z,1032.81
2018-04-15T02:52:29.050Z,1032.79
2018-04-15T02:53:29.042Z,1032.73
2018-04-15T02:54:29.035Z,1032.71
2018-04-15T02:55:29.030Z,1032.66
2018-04-15T02:56:29.017Z,1032.62
2018-04-15T02:57:29.008Z,1032.57
2018-04-15T02:58:29.000Z,1032.56
2018-04-15T02:59:28.992Z,1032.5
2018-04-15T03:00:28.983Z,1032.5
2018-04-15T03:01:28.976Z,1032.48
2018-04-15T03:02:28.968Z,1032.45
2018-04-15T03:03:28.959Z,1032.45
2018-04-15T03:04:28.951Z,1032.42
2018-04-15T03:05:28.943Z,1032.38
2018-04-15T03:06:28.935Z,1032.38
2018-04-15T03:07:28.930Z,1032.34
2018-04-15T03:08:28.917Z,1032.34
2018-04-15T03:09:28.915Z,1032.34
2018-04-15T03:10:28.909Z,1032.38
2018-04-15T03:11:28.892Z,1032.39
2018-04-15T03:12:28.884Z,1032.39
2018-04-15T03:13:28.876Z,1032.43
2018-04-15T03:14:28.869Z,1032.46
2018-04-15T03:15:28.860Z,1032.51
2018-04-15T03:16:28.851Z,1032.48
2018-04-15T03:17:28.844Z,1032.5
2018-04-15T03:18:28.835Z,1032.5
2018-04-15T03:19:28.827Z,1032.49
2018-04-15T03:20:28.826Z,1032.47
2018-04-15T03:21:28.811Z,1032.43
2018-04-15T03:22:28.803Z,1032.45
2018-04-15T03:23:28.794Z,1032.44
2018-04-15T03:24:28.785Z,1032.42
2018-04-15T03:25:28.778Z,1032.41
2018-04-15T03:26:28.769Z,1032.37
2018-04-15T03:27:28.761Z,1032.37
2018-04-15T03:28:28.754Z,1032.44
2018-04-15T03:29:28.751Z,1032.4
2018-04-15T03:30:28.737Z,1032.43
2018-04-15T03:31:28.728Z,1032.44
2018-04-15T03:32:28.720Z,1032.48
2018-04-15T03:33:28.712Z,1032.44
2018-04-15T03:34:28.703Z,1032.44
2018-04-15T03:35:28.695Z,1032.42
2018-04-15T03:36:28.688Z,1032.36
2018-04-15T03:37:28.680Z,1032.3
2018-04-15T03:38:28.670Z,1032.28
2018-04-15T03:39:28.663Z,1032.26
2018-04-15T03:40:28.655Z,1032.24
2018-04-15T03:41:28.646Z,1032.2
2018-04-15T03:42:28.639Z,1032.13
2018-04-15T03:43:28.631Z,1032.08
2018-04-15T03:44:28.621Z,1032.07
2018-04-15T03:45:28.617Z,1032.1
2018-04-15T03:46:28.606Z,1032.09
2018-04-15T03:47:28.598Z,1032.09
2018-04-15T03:48:28.590Z,1032.08
2018-04-15T03:49:28.582Z,1032.12
2018-04-15T03:50:28.575Z,1032.1
2018-04-15T03:51:28.567Z,1032.06
2018-04-15T03:52:28.559Z,1032.02
2018-04-15T03:53:28.550Z,1032
2018-04-15T03:54:28.550Z,1031.98
2018-04-15T03:55:28.534Z,1031.95
2018-04-15T03:56:28.527Z,1031.96
2018-04-15T03:57:28.518Z,1031.94
2018-04-15T03:58:28.511Z,1031.93
2018-04-15T03:59:28.503Z,1031.92
2018-04-15T04:00:28.502Z,1031.94
2018-04-15T04:01:28.488Z,1032.01
2018-04-15T04:02:28.480Z,1031.99
2018-04-15T04:03:28.472Z,1032
2018-04-15T04:04:28.465Z,1032.08
2018-04-15T04:05:28.461Z,1032.11
2018-04-15T04:06:28.450Z,1032.13
2018-04-15T04:07:28.443Z,1032.14
2018-04-15T04:08:28.434Z,1032.14
2018-04-15T04:09:28.425Z,1032.17
2018-04-15T04:10:28.419Z,1032.19
2018-04-15T04:11:28.409Z,1032.14
2018-04-15T04:12:28.403Z,1032.11
2018-04-15T04:13:28.393Z,1032.12
2018-04-15T04:14:28.385Z,1032.15
2018-04-15T04:15:28.378Z,1032.22
2018-04-15T04:16:28.371Z,1032.21
2018-04-15T04:17:28.362Z,1032.23
2018-04-15T04:18:28.358Z,1032.18
2018-04-15T04:19:28.348Z,1032.13
2018-04-15T04:20:28.379Z,1032.13
2018-04-15T04:21:28.330Z,1032.04
2018-04-15T04:22:28.322Z,1032.03
2018-04-15T04:23:28.315Z,1032.02
2018-04-15T04:24:28.306Z,1032.01
2018-04-15T04:25:28.298Z,1031.97
2018-04-15T04:26:28.290Z,1031.99
2018-04-15T04:27:28.284Z,1031.95
2018-04-15T04:28:28.274Z,1031.97
2018-04-15T04:29:28.266Z,1031.94
2018-04-15T04:30:28.266Z,1031.9
2018-04-15T04:31:28.251Z,1031.91
2018-04-15T04:32:28.251Z,1031.95
2018-04-15T04:33:28.235Z,1032.01
2018-04-15T04:34:28.227Z,1032.02
2018-04-15T04:35:28.219Z,1031.98
2018-04-15T04:36:28.211Z,1031.95
2018-04-15T04:37:28.202Z,1031.91
2018-04-15T04:38:28.195Z,1031.88
2018-04-15T04:39:28.187Z,1031.81
2018-04-15T04:40:28.187Z,1031.82
2018-04-15T04:41:28.172Z,1031.75
2018-04-15T04:42:28.163Z,1031.8
2018-04-15T04:43:28.154Z,1031.79
2018-04-15T04:44:28.149Z,1031.84
2018-04-15T04:45:28.140Z,1031.8
2018-04-15T04:46:28.132Z,1031.8
2018-04-15T04:47:28.126Z,1031.77
2018-04-15T04:48:28.116Z,1031.73
2018-04-15T04:49:28.108Z,1031.66
2018-04-15T04:50:28.100Z,1031.68
2018-04-15T04:51:28.092Z,1031.7
2018-04-15T04:52:28.084Z,1031.67
2018-04-15T04:53:28.078Z,1031.6
2018-04-15T04:54:28.069Z,1031.57
2018-04-15T04:55:28.061Z,1031.52
2018-04-15T04:56:28.062Z,1031.46
2018-04-15T04:57:28.046Z,1031.47
2018-04-15T04:58:28.038Z,1031.33
2018-04-15T04:59:28.031Z,1031.28
2018-04-15T05:00:28.023Z,1031.26
2018-04-15T05:01:28.015Z,1031.26
2018-04-15T05:02:28.008Z,1031.26
2018-04-15T05:03:28.000Z,1031.23
2018-04-15T05:04:27.993Z,1031.16
2018-04-15T05:05:27.986Z,1031.07
2018-04-15T05:06:27.978Z,1031.01
2018-04-15T05:07:27.971Z,1030.97
2018-04-15T05:08:27.962Z,1030.92
2018-04-15T05:09:27.955Z,1030.94
2018-04-15T05:10:27.948Z,1030.91
2018-04-15T05:11:27.942Z,1030.93
2018-04-15T05:12:27.933Z,1030.96
2018-04-15T05:13:27.927Z,1030.98
2018-04-15T05:14:27.921Z,1031
2018-04-15T05:15:27.913Z,1030.96
2018-04-15T05:16:27.905Z,1030.95
2018-04-15T05:17:27.897Z,1030.96
2018-04-15T05:18:27.891Z,1030.91
2018-04-15T05:19:27.883Z,1030.92
2018-04-15T05:20:27.877Z,1030.79
2018-04-15T05:21:27.869Z,1030.78
2018-04-15T05:22:27.863Z,1030.72
2018-04-15T05:23:27.855Z,1030.7
2018-04-15T05:24:27.886Z,1030.71
2018-04-15T05:25:27.841Z,1030.74
2018-04-15T05:26:27.835Z,1030.7
2018-04-15T05:27:27.827Z,1030.68
2018-04-15T05:28:27.821Z,1030.7
2018-04-15T05:29:27.815Z,1030.68
2018-04-15T05:30:27.806Z,1030.69
2018-04-15T05:31:27.800Z,1030.71
2018-04-15T05:32:27.793Z,1030.68
2018-04-15T05:33:27.787Z,1030.67
2018-04-15T05:34:27.779Z,1030.65
2018-04-15T05:35:27.773Z,1030.62
2018-04-15T05:36:27.769Z,1030.63
2018-04-15T05:37:27.760Z,1030.6
2018-04-15T05:38:27.754Z,1030.61
2018-04-15T05:39:27.752Z,1030.58
2018-04-15T05:40:27.742Z,1030.6
2018-04-15T05:41:27.734Z,1030.55
2018-04-15T05:42:27.727Z,1030.56
2018-04-15T05:43:27.721Z,1030.52
2018-04-15T05:44:27.715Z,1030.49
2018-04-15T05:45:27.707Z,1030.47
2018-04-15T05:46:27.702Z,1030.47
2018-04-15T05:47:27.695Z,1030.49
2018-04-15T05:48:27.688Z,1030.46
2018-04-15T05:49:27.681Z,1030.5
2018-04-15T05:50:27.684Z,1030.49
2018-04-15T05:51:27.669Z,1030.53
2018-04-15T05:52:27.662Z,1030.57
2018-04-15T05:53:27.656Z,1030.54
2018-04-15T05:54:27.650Z,1030.54
2018-04-15T05:55:27.643Z,1030.49
2018-04-15T05:56:27.636Z,1030.46
2018-04-15T05:57:27.630Z,1030.45
2018-04-15T05:58:27.626Z,1030.42
2018-04-15T05:59:27.684Z,1030.41
2018-04-15T06:00:27.612Z,1030.41
2018-04-15T06:01:27.607Z,1030.37
2018-04-15T06:02:27.598Z,1030.35
2018-04-15T06:03:27.591Z,1030.33
2018-04-15T06:04:27.585Z,1030.27
2018-04-15T06:05:27.579Z,1030.19
2018-04-15T06:06:27.573Z,1030.04
2018-04-15T06:07:27.567Z,1029.82
2018-04-15T06:08:27.560Z,1029.54
2018-04-15T06:09:27.554Z,1029.14
2018-04-15T06:10:27.548Z,1028.83
2018-04-15T06:11:27.541Z,1028.62
2018-04-15T06:12:27.536Z,1028.41
2018-04-15T06:13:27.535Z,1028.32
2018-04-15T06:14:27.525Z,1028.31
2018-04-15T06:15:27.520Z,1027.96
2018-04-15T06:16:27.515Z,1027.69
2018-04-15T06:17:27.509Z,1027.44
2018-04-15T06:18:27.507Z,1027.23
2018-04-15T06:19:27.500Z,1027.1
2018-04-15T06:20:27.499Z,1027.01
2018-04-15T06:21:27.491Z,1026.93
2018-04-15T06:22:27.487Z,1026.94
2018-04-15T06:23:27.483Z,1027.01
2018-04-15T06:24:27.479Z,1027.07
2018-04-15T06:25:27.488Z,1027.2
2018-04-15T06:26:27.473Z,1027.3
2018-04-15T06:27:27.469Z,1027.38
2018-04-15T06:28:27.466Z,1027.46
2018-04-15T06:29:27.462Z,1027.49
2018-04-15T06:30:27.460Z,1027.48
2018-04-15T06:31:27.456Z,1027.49
2018-04-15T06:32:27.456Z,1027.53
2018-04-15T06:33:27.449Z,1027.23
2018-04-15T06:34:27.446Z,1027.05
2018-04-15T06:35:27.444Z,1027.07
2018-04-15T06:36:27.439Z,1027.06
2018-04-15T06:37:27.437Z,1027
2018-04-15T06:38:27.435Z,1027.02
2018-04-15T06:39:27.432Z,1026.96
2018-04-15T06:40:27.428Z,1026.85
2018-04-15T06:41:27.428Z,1026.7
2018-04-15T06:42:27.432Z,1026.71
2018-04-15T06:43:27.420Z,1026.78
2018-04-15T06:44:27.419Z,1026.82
2018-04-15T06:45:27.415Z,1026.79
2018-04-15T06:46:27.413Z,1026.85
2018-04-15T06:47:27.410Z,1026.86
2018-04-15T06:48:27.408Z,1026.84
2018-04-15T06:49:27.405Z,1026.69
2018-04-15T06:50:27.404Z,1026.47
2018-04-15T06:51:27.400Z,1026.11
2018-04-15T06:52:27.398Z,1026.04
2018-04-15T06:53:27.396Z,1026.13
2018-04-15T06:54:27.401Z,1026.01
2018-04-15T06:55:27.392Z,1025.78
2018-04-15T06:56:27.391Z,1025.6
2018-04-15T06:57:27.388Z,1025.36
2018-04-15T06:58:27.385Z,1025.17
2018-04-15T06:59:27.390Z,1024.99
2018-04-15T07:00:27.383Z,1024.97
2018-04-15T07:01:27.385Z,1025.05
2018-04-15T07:02:27.380Z,1024.92
2018-04-15T07:03:27.380Z,1024.79
2018-04-15T07:04:27.379Z,1024.64
2018-04-15T07:05:27.377Z,1024.3
2018-04-15T07:06:27.377Z,1023.97
2018-04-15T07:07:27.377Z,1023.64
2018-04-15T07:08:27.377Z,1023.3
2018-04-15T07:09:27.379Z,1022.98
2018-04-15T07:10:27.377Z,1022.79
2018-04-15T07:11:27.378Z,1022.59
2018-04-15T07:12:27.382Z,1022.78
2018-04-15T07:13:27.381Z,1023.07
2018-04-15T07:14:27.382Z,1023.23
2018-04-15T07:15:27.385Z,1023.29
2018-04-15T07:16:27.421Z,1023.29
2018-04-15T07:17:27.388Z,1023.29
2018-04-15T07:18:27.390Z,1023.21
2018-04-15T07:19:27.393Z,1023.11
2018-04-15T07:20:27.395Z,1022.94
2018-04-15T07:21:27.407Z,1022.78
2018-04-15T07:22:27.400Z,1022.62
2018-04-15T07:23:27.402Z,1022.59
2018-04-15T07:24:27.406Z,1022.59
2018-04-15T07:25:27.409Z,1022.49
2018-04-15T07:26:27.413Z,1022.42
2018-04-15T07:27:27.417Z,1022.43
2018-04-15T07:28:27.420Z,1022.4
2018-04-15T07:29:27.424Z,1022.41
2018-04-15T07:30:27.455Z,1022.19
2018-04-15T07:31:27.431Z,1022.2
2018-04-15T07:32:27.436Z,1022.13
2018-04-15T07:33:27.441Z,1021.97
2018-04-15T07:34:27.445Z,1022.31
2018-04-15T07:35:27.450Z,1022.46
2018-04-15T07:36:27.493Z,1022.39
2018-04-15T07:37:27.460Z,1022.05
2018-04-15T07:38:27.464Z,1021.65
2018-04-15T07:39:27.476Z,1021.31
2018-04-15T07:40:27.478Z,1021.19
2018-04-15T07:41:27.481Z,1021.09
2018-04-15T07:42:27.490Z,1020.87
2018-04-15T07:43:27.493Z,1020.64
2018-04-15T07:44:27.501Z,1020.47
2018-04-15T07:45:27.510Z,1020.38
2018-04-15T07:46:27.512Z,1020.19
2018-04-15T07:47:27.520Z,1020.11
2018-04-15T07:48:27.527Z,1020.03
2018-04-15T07:49:27.534Z,1019.88
2018-04-15T07:50:27.569Z,1019.72
2018-04-15T07:51:27.553Z,1019.56
2018-04-15T07:52:27.559Z,1019.47
2018-04-15T07:53:27.567Z,1019.44
2018-04-15T07:54:27.576Z,1019.42
2018-04-15T07:55:27.585Z,1019.51
2018-04-15T07:56:27.594Z,1019.59
2018-04-15T07:57:27.616Z,1019.68
2018-04-15T07:58:27.614Z,1019.78
2018-04-15T07:59:27.625Z,1019.87
2018-04-15T08:00:27.630Z,1020.09
2018-04-15T08:01:27.640Z,1020.24
2018-04-15T08:02:27.650Z,1020.23
2018-04-15T08:03:27.661Z,1020.3
2018-04-15T08:04:27.668Z,1020.33
2018-04-15T08:05:27.678Z,1020.31
2018-04-15T08:06:27.688Z,1020.47
2018-04-15T08:07:27.702Z,1020.58
2018-04-15T08:08:27.707Z,1020.69
2018-04-15T08:09:27.716Z,1020.75
2018-04-15T08:10:27.725Z,1020.78
2018-04-15T08:11:27.734Z,1020.82
2018-04-15T08:12:27.744Z,1020.88
2018-04-15T08:13:27.752Z,1021.03
2018-04-15T08:14:27.761Z,1021.19
2018-04-15T08:15:27.769Z,1021.32
2018-04-15T08:16:27.779Z,1021.26
2018-04-15T08:17:27.789Z,1021.22
2018-04-15T08:18:27.801Z,1021.14
2018-04-15T08:19:27.804Z,1021.23
2018-04-15T08:20:27.814Z,1021.35
2018-04-15T08:21:27.821Z,1021.39
2018-04-15T08:22:27.829Z,1021.42
2018-04-15T08:23:27.837Z,1021.57
2018-04-15T08:24:27.845Z,1021.76
2018-04-15T08:25:27.854Z,1022.02
2018-04-15T08:26:27.864Z,1022.32
2018-04-15T08:27:27.869Z,1022.54
2018-04-15T08:28:27.877Z,1022.77
2018-04-15T08:29:27.883Z,1023
2018-04-15T08:30:27.890Z,1023.23
2018-04-15T08:31:27.898Z,1023.48
2018-04-15T08:32:27.905Z,1023.74
2018-04-15T08:33:27.911Z,1023.84
2018-04-15T08:34:27.917Z,1023.87
2018-04-15T08:35:27.924Z,1023.9
2018-04-15T08:36:27.929Z,1023.93
2018-04-15T08:37:27.941Z,1023.94
2018-04-15T08:38:27.940Z,1024.03
2018-04-15T08:39:27.945Z,1024.1
2018-04-15T08:40:27.949Z,1024.21
2018-04-15T08:41:27.954Z,1024.24
2018-04-15T08:42:27.959Z,1024.32
2018-04-15T08:43:27.964Z,1024.36
2018-04-15T08:44:27.970Z,1024.39
2018-04-15T08:45:27.970Z,1024.46
2018-04-15T08:46:27.976Z,1024.57
2018-04-15T08:47:27.979Z,1024.66
2018-04-15T08:48:27.982Z,1024.76
2018-04-15T08:49:27.990Z,1024.87
2018-04-15T08:50:27.990Z,1024.95
2018-04-15T08:51:27.992Z,1025.03
2018-04-15T08:52:27.994Z,1025.11
2018-04-15T08:53:27.998Z,1025.15
2018-04-15T08:54:28.023Z,1025.25
2018-04-15T08:55:28.002Z,1025.32
2018-04-15T08:56:28.004Z,1025.39
2018-04-15T08:57:28.006Z,1025.45
2018-04-15T08:58:28.008Z,1025.49
2018-04-15T08:59:28.012Z,1025.55
2018-04-15T09:00:28.010Z,1025.65
2018-04-15T09:01:28.012Z,1025.64
2018-04-15T09:02:28.013Z,1025.67
2018-04-15T09:03:28.016Z,1025.69
2018-04-15T09:04:28.014Z,1025.72
2018-04-15T09:05:28.020Z,1025.73
2018-04-15T09:06:28.015Z,1025.74
2018-04-15T09:07:28.017Z,1025.69
2018-04-15T09:08:28.018Z,1025.72
2018-04-15T09:09:28.021Z,1025.74
2018-04-15T09:10:28.017Z,1025.73
2018-04-15T09:11:28.019Z,1025.75
2018-04-15T09:12:28.018Z,1025.78
2018-04-15T09:13:28.019Z,1025.77
2018-04-15T09:14:28.022Z,1025.78
2018-04-15T09:15:28.022Z,1025.83
2018-04-15T09:16:28.019Z,1025.85
2018-04-15T09:17:28.018Z,1025.8
2018-04-15T09:18:28.023Z,1025.85
2018-04-15T09:19:28.024Z,1025.82
2018-04-15T09:20:28.022Z,1025.83
2018-04-15T09:21:28.017Z,1025.83
2018-04-15T09:22:28.021Z,1025.82
2018-04-15T09:23:28.017Z,1025.85
2018-04-15T09:24:28.016Z,1025.85
2018-04-15T09:25:28.018Z,1025.86
2018-04-15T09:26:28.032Z,1025.92
2018-04-15T09:27:28.016Z,1025.87
2018-04-15T09:28:28.015Z,1025.8
2018-04-15T09:29:28.014Z,1025.79
2018-04-15T09:30:28.013Z,1025.8
2018-04-15T09:31:28.012Z,1025.8
2018-04-15T09:32:28.028Z,1025.78
2018-04-15T09:33:28.011Z,1025.75
2018-04-15T09:34:28.011Z,1025.79
2018-04-15T09:35:28.009Z,1025.79
2018-04-15T09:36:28.017Z,1025.77
2018-04-15T09:37:28.014Z,1025.85
2018-04-15T09:38:28.057Z,1025.84
2018-04-15T09:39:28.006Z,1025.8
2018-04-15T09:40:28.006Z,1025.83
2018-04-15T09:41:28.004Z,1025.84
2018-04-15T09:42:28.006Z,1025.79
2018-04-15T09:43:28.003Z,1025.85
2018-04-15T09:44:28.003Z,1025.82
2018-04-15T09:45:28.015Z,1025.86
2018-04-15T09:46:28.043Z,1025.86
2018-04-15T09:47:28.000Z,1025.88
2018-04-15T09:48:27.999Z,1025.87
2018-04-15T09:49:28.001Z,1025.89
2018-04-15T09:50:27.998Z,1025.89
2018-04-15T09:51:27.996Z,1025.86
2018-04-15T09:52:27.996Z,1025.9
2018-04-15T09:53:27.993Z,1025.92
2018-04-15T09:54:27.992Z,1025.82
2018-04-15T09:55:27.992Z,1025.8
2018-04-15T09:56:27.993Z,1025.76
2018-04-15T09:57:27.989Z,1025.78
2018-04-15T09:58:27.989Z,1025.78
2018-04-15T09:59:27.988Z,1025.74
2018-04-15T10:00:27.988Z,1025.65
2018-04-15T10:01:27.986Z,1025.65
2018-04-15T10:02:27.992Z,1025.56
2018-04-15T10:03:27.984Z,1025.59
2018-04-15T10:04:27.985Z,1025.58
2018-04-15T10:05:27.981Z,1025.54
2018-04-15T10:06:27.981Z,1025.47
2018-04-15T10:07:27.981Z,1025.47
2018-04-15T10:08:27.978Z,1025.48
2018-04-15T10:09:27.978Z,1025.47
2018-04-15T10:10:27.979Z,1025.46
2018-04-15T10:11:27.976Z,1025.44
2018-04-15T10:12:27.975Z,1025.42
2018-04-15T10:13:27.977Z,1025.41
2018-04-15T10:14:27.976Z,1025.32
2018-04-15T10:15:27.982Z,1025.24
2018-04-15T10:16:27.972Z,1025.23
2018-04-15T10:17:27.972Z,1025.17
2018-04-15T10:18:27.971Z,1025.13
2018-04-15T10:19:27.973Z,1025.06
2018-04-15T10:20:27.976Z,1025.05
2018-04-15T10:21:27.969Z,1025
2018-04-15T10:22:27.968Z,1024.92
2018-04-15T10:23:27.969Z,1024.87
2018-04-15T10:24:27.970Z,1024.83
2018-04-15T10:25:27.976Z,1024.85
2018-04-15T10:26:27.966Z,1024.78
2018-04-15T10:27:27.965Z,1024.71
2018-04-15T10:28:27.972Z,1024.68
2018-04-15T10:29:27.966Z,1024.63
2018-04-15T10:30:27.965Z,1024.57
2018-04-15T10:31:27.964Z,1024.56
2018-04-15T10:32:27.965Z,1024.48
2018-04-15T10:33:27.963Z,1024.45
2018-04-15T10:34:27.964Z,1024.34
2018-04-15T10:35:27.986Z,1024.29
2018-04-15T10:36:27.965Z,1024.22
2018-04-15T10:37:27.964Z,1024.14
2018-04-15T10:38:27.966Z,1024.02
2018-04-15T10:39:27.964Z,1024.02
2018-04-15T10:40:27.968Z,1023.96
2018-04-15T10:41:27.964Z,1023.92
2018-04-15T10:42:27.965Z,1023.99
2018-04-15T10:43:27.964Z,1023.98
2018-04-15T10:44:27.972Z,1023.96
2018-04-15T10:45:27.964Z,1024
2018-04-15T10:46:27.965Z,1023.89
2018-04-15T10:47:27.972Z,1023.93
2018-04-15T10:48:27.965Z,1023.95
2018-04-15T10:49:27.966Z,1023.87
2018-04-15T10:50:27.969Z,1023.85
2018-04-15T10:51:27.965Z,1023.87
2018-04-15T10:52:27.965Z,1023.87
2018-04-15T10:53:27.965Z,1023.81
2018-04-15T10:54:27.966Z,1023.77
2018-04-15T10:55:27.966Z,1023.76
2018-04-15T10:56:27.966Z,1023.85
2018-04-15T10:57:27.970Z,1023.83
2018-04-15T10:58:27.966Z,1023.82
2018-04-15T10:59:27.965Z,1023.82
2018-04-15T11:00:27.967Z,1023.9
2018-04-15T11:01:27.967Z,1023.9
2018-04-15T11:02:27.969Z,1023.88
2018-04-15T11:03:27.968Z,1023.89
2018-04-15T11:04:27.970Z,1023.91
2018-04-15T11:05:27.971Z,1023.94
2018-04-15T11:06:27.968Z,1023.91
2018-04-15T11:07:27.973Z,1023.95
2018-04-15T11:08:27.970Z,1023.93
2018-04-15T11:09:27.970Z,1023.95
2018-04-15T11:10:27.969Z,1023.97
2018-04-15T11:11:27.969Z,1023.98
2018-04-15T11:12:27.970Z,1023.97
2018-04-15T11:13:27.971Z,1023.97
2018-04-15T11:14:27.973Z,1024.1
2018-04-15T11:15:27.970Z,1024.06
2018-04-15T11:16:27.972Z,1024.08
2018-04-15T11:17:27.970Z,1024.08
2018-04-15T11:18:27.970Z,1024.05
2018-04-15T11:19:27.971Z,1024.04
2018-04-15T11:20:27.979Z,1024
2018-04-15T11:21:27.970Z,1023.98
2018-04-15T11:22:27.971Z,1023.95
2018-04-15T11:23:27.971Z,1023.93
2018-04-15T11:24:27.970Z,1023.96
2018-04-15T11:25:27.970Z,1023.96
2018-04-15T11:26:27.970Z,1023.9
2018-04-15T11:27:27.969Z,1023.82
2018-04-15T11:28:27.968Z,1023.83
2018-04-15T11:29:27.968Z,1023.8
2018-04-15T11:30:27.968Z,1023.79
2018-04-15T11:31:27.972Z,1023.72
2018-04-15T11:32:27.997Z,1023.65
2018-04-15T11:33:27.967Z,1023.59
2018-04-15T11:34:27.968Z,1023.65
2018-04-15T11:35:27.971Z,1023.63
2018-04-15T11:36:27.967Z,1023.58
2018-04-15T11:37:27.966Z,1023.57
2018-04-15T11:38:27.975Z,1023.64
2018-04-15T11:39:27.966Z,1023.62
2018-04-15T11:40:27.966Z,1023.58
2018-04-15T11:41:27.968Z,1023.55
2018-04-15T11:42:27.966Z,1023.46
2018-04-15T11:43:27.965Z,1023.43
2018-04-15T11:44:27.975Z,1023.46
2018-04-15T11:45:27.965Z,1023.45
2018-04-15T11:46:27.966Z,1023.43
2018-04-15T11:47:27.966Z,1023.4
2018-04-15T11:48:27.967Z,1023.37
2018-04-15T11:49:27.972Z,1023.34
2018-04-15T11:50:27.965Z,1023.34
2018-04-15T11:51:27.986Z,1023.27
2018-04-15T11:52:27.966Z,1023.28
2018-04-15T11:53:27.972Z,1023.27
2018-04-15T11:54:27.965Z,1023.27
2018-04-15T11:55:27.965Z,1023.21
2018-04-15T11:56:27.968Z,1023.18
2018-04-15T11:57:27.967Z,1023.15
2018-04-15T11:58:28.012Z,1023.14
2018-04-15T11:59:27.967Z,1023.06
2018-04-15T12:00:27.970Z,1023.03
2018-04-15T12:01:27.968Z,1022.93
2018-04-15T12:02:27.968Z,1022.87
2018-04-15T12:03:27.982Z,1022.85
2018-04-15T12:04:27.970Z,1022.83
2018-04-15T12:05:27.969Z,1022.78
2018-04-15T12:06:27.971Z,1022.75
2018-04-15T12:07:27.971Z,1022.75
2018-04-15T12:08:27.971Z,1022.76